createdAt,value
2018-05-25T00:02:20.553Z,71.40
2018-05-25T00:04:48.949Z,71.90
2018-05-25T00:07:18.057Z,72.10
2018-05-25T00:09:47.265Z,72.20
2018-05-25T00:12:15.591Z,72.20
2018-05-25T00:14:43.963Z,72.20
2018-05-25T00:17:12.306Z,72.20
2018-05-25T00:19:40.608Z,72.30
2018-05-25T00:22:10.461Z,72.00
2018-05-25T00:24:39.598Z,71.90
2018-05-25T00:27:08.681Z,71.70
2018-05-25T00:29:37.792Z,71.60
2018-05-25T00:32:06.880Z,71.40
2018-05-25T00:34:36.700Z,71.60
2018-05-25T00:37:05.041Z,71.50
2018-05-25T00:39:33.353Z,71.70
2018-05-25T00:42:01.705Z,72.00
2018-05-25T00:44:30.004Z,72.30
2018-05-25T00:46:58.310Z,72.30
2018-05-25T00:49:26.758Z,72.50
2018-05-25T00:51:55.827Z,72.70
2018-05-25T00:54:24.178Z,72.70
2018-05-25T00:56:52.485Z,73.40
2018-05-25T00:59:20.794Z,73.40
2018-05-25T01:01:49.136Z,73.30
2018-05-25T01:04:18.237Z,73.60
2018-05-25T01:06:47.309Z,73.60
2018-05-25T01:09:15.639Z,73.50
2018-05-25T01:11:44.733Z,73.10
2018-05-25T01:14:13.842Z,72.90
2018-05-25T01:16:42.917Z,73.00
2018-05-25T01:19:11.232Z,72.80
2018-05-25T01:21:39.573Z,72.90
2018-05-25T01:24:07.921Z,72.50
2018-05-25T01:26:37.033Z,72.50
2018-05-25T01:29:06.108Z,72.50
2018-05-25T01:31:34.433Z,72.50
2018-05-25T01:34:03.537Z,72.20
2018-05-25T01:36:32.641Z,72.00
2018-05-25T01:39:01.341Z,72.00
2018-05-25T01:41:29.714Z,72.80
2018-05-25T01:43:58.025Z,71.80
2018-05-25T01:46:27.539Z,71.80
2018-05-25T01:48:56.654Z,72.30
2018-05-25T01:51:25.760Z,71.70
2018-05-25T01:53:55.174Z,71.60
2018-05-25T01:56:24.276Z,71.60
2018-05-25T01:58:52.669Z,71.60
2018-05-25T02:01:21.778Z,71.30
2018-05-25T02:03:50.887Z,71.40
2018-05-25T02:06:19.957Z,71.30
2018-05-25T02:08:48.280Z,71.20
2018-05-25T02:11:16.672Z,71.40
2018-05-25T02:13:45.065Z,71.50
2018-05-25T02:16:13.414Z,71.30
2018-05-25T02:18:41.721Z,71.50
2018-05-25T02:21:10.070Z,71.90
2018-05-25T02:23:38.421Z,72.30
2018-05-25T02:26:06.720Z,71.60
2018-05-25T02:28:35.793Z,72.50
2018-05-25T02:31:05.685Z,72.00
2018-05-25T02:33:34.025Z,71.90
2018-05-25T02:36:02.360Z,71.50
2018-05-25T02:38:30.677Z,72.00
2018-05-25T02:40:59.426Z,71.80
2018-05-25T02:43:28.501Z,71.80
2018-05-25T02:45:56.801Z,71.80
2018-05-25T02:48:27.062Z,71.50
2018-05-25T02:50:56.139Z,72.90
2018-05-25T02:53:24.441Z,72.80
2018-05-25T02:55:54.289Z,71.50
2018-05-25T02:58:23.410Z,71.70
2018-05-25T03:00:51.759Z,71.70
2018-05-25T03:03:20.262Z,71.60
2018-05-25T03:05:48.605Z,71.50
2018-05-25T03:08:16.921Z,72.70
2018-05-25T03:10:45.228Z,72.60
2018-05-25T03:13:13.729Z,72.00
2018-05-25T03:15:42.101Z,73.10
2018-05-25T03:18:10.413Z,72.40
2018-05-25T03:20:39.621Z,73.20
2018-05-25T03:23:08.733Z,72.40
2018-05-25T03:25:37.840Z,72.50
2018-05-25T03:28:06.911Z,73.10
2018-05-25T03:30:35.344Z,72.90
2018-05-25T03:33:04.421Z,73.80
2018-05-25T03:35:32.730Z,73.70
2018-05-25T03:38:01.438Z,73.80
2018-05-25T03:40:30.515Z,74.70
2018-05-25T03:42:58.829Z,74.70
2018-05-25T03:45:27.169Z,73.80
2018-05-25T03:47:55.513Z,72.10
2018-05-25T03:50:24.630Z,70.70
2018-05-25T03:52:53.729Z,68.10
2018-05-25T03:55:22.088Z,68.10
2018-05-25T03:57:50.399Z,66.90
2018-05-25T04:00:30.682Z,66.20
2018-05-25T04:02:59.762Z,68.40
2018-05-25T04:05:28.384Z,68.30
2018-05-25T04:07:57.452Z,72.10
2018-05-25T04:10:25.761Z,71.90
2018-05-25T04:12:54.284Z,71.30
2018-05-25T04:15:23.389Z,69.90
2018-05-25T04:17:52.448Z,71.20
2018-05-25T04:20:20.784Z,71.20
2018-05-25T04:22:49.861Z,70.90
2018-05-25T04:25:18.376Z,70.90
2018-05-25T04:27:46.689Z,71.10
2018-05-25T04:30:15.771Z,70.80
2018-05-25T04:32:44.442Z,70.80
2018-05-25T04:35:12.785Z,71.30
2018-05-25T04:37:41.888Z,69.80
2018-05-25T04:40:10.957Z,69.00
2018-05-25T04:42:39.270Z,69.00
2018-05-25T04:45:07.612Z,68.50
2018-05-25T04:47:36.052Z,69.20
2018-05-25T04:50:04.403Z,67.00
2018-05-25T04:52:32.722Z,67.60
2018-05-25T04:55:01.124Z,66.20
2018-05-25T04:57:29.460Z,66.10
2018-05-25T04:59:57.769Z,65.80
2018-05-25T05:02:26.083Z,65.30
2018-05-25T05:04:54.427Z,65.90
2018-05-25T05:07:22.776Z,65.70
2018-05-25T05:09:51.165Z,66.10
2018-05-25T05:12:19.505Z,65.30
2018-05-25T05:14:47.865Z,64.90
2018-05-25T05:17:16.964Z,65.30
2018-05-25T05:19:46.270Z,65.30
2018-05-25T05:22:15.478Z,64.50
2018-05-25T05:24:43.821Z,64.50
2018-05-25T05:27:12.470Z,65.80
2018-05-25T05:29:41.544Z,65.50
2018-05-25T05:32:09.859Z,65.20
2018-05-25T05:34:38.255Z,64.70
2018-05-25T05:37:06.570Z,64.70
2018-05-25T05:39:34.879Z,65.50
2018-05-25T05:42:03.324Z,64.70
2018-05-25T05:44:32.444Z,64.80
2018-05-25T05:47:01.546Z,65.40
2018-05-25T05:49:29.846Z,65.40
2018-05-25T05:51:58.912Z,64.70
2018-05-25T05:54:27.258Z,64.70
2018-05-25T05:56:55.591Z,64.20
2018-05-25T05:59:24.017Z,64.10
2018-05-25T06:01:53.093Z,63.80
2018-05-25T06:04:21.455Z,63.60
2018-05-25T06:06:50.537Z,61.90
2018-05-25T06:09:19.724Z,63.50
2018-05-25T06:11:48.117Z,63.50
2018-05-25T06:14:16.464Z,63.00
2018-05-25T06:16:44.773Z,63.40
2018-05-25T06:19:13.095Z,62.80
2018-05-25T06:21:42.306Z,62.50
2018-05-25T06:24:11.433Z,62.00
2018-05-25T06:26:40.013Z,62.00
2018-05-25T06:29:09.088Z,61.80
2018-05-25T06:31:37.401Z,61.70
2018-05-25T06:34:05.745Z,61.60
2018-05-25T06:36:34.090Z,60.60
2018-05-25T06:39:03.157Z,60.00
2018-05-25T06:41:31.501Z,59.90
2018-05-25T06:43:59.872Z,60.50
2018-05-25T06:46:28.180Z,59.70
2018-05-25T06:48:57.248Z,60.30
2018-05-25T06:51:25.948Z,60.20
2018-05-25T06:53:55.077Z,60.60
2018-05-25T06:56:24.160Z,59.30
2018-05-25T06:58:52.505Z,59.20
2018-05-25T07:01:20.833Z,59.50
2018-05-25T07:03:49.164Z,59.40
2018-05-25T07:06:18.245Z,57.90
2018-05-25T07:08:48.066Z,58.40
2018-05-25T07:11:16.409Z,58.30
2018-05-25T07:13:44.708Z,60.10
2018-05-25T07:16:13.053Z,59.40
2018-05-25T07:18:42.121Z,59.00
2018-05-25T07:21:10.433Z,59.00
2018-05-25T07:23:39.049Z,58.80
2018-05-25T07:26:07.450Z,58.30
2018-05-25T07:28:36.529Z,58.10
2018-05-25T07:31:04.873Z,58.00
2018-05-25T07:33:33.235Z,57.20
2018-05-25T07:36:02.341Z,57.20
2018-05-25T07:38:31.422Z,56.80
2018-05-25T07:40:59.729Z,56.70
2018-05-25T07:43:28.072Z,58.60
2018-05-25T07:45:56.382Z,57.20
2018-05-25T07:48:24.689Z,57.20
2018-05-25T07:50:53.203Z,56.60
2018-05-25T07:53:21.513Z,56.20
2018-05-25T07:55:49.817Z,54.90
2018-05-25T07:58:18.159Z,55.80
2018-05-25T08:00:46.478Z,55.10
2018-05-25T08:03:14.780Z,56.70
2018-05-25T08:05:43.121Z,55.50
2018-05-25T08:08:11.528Z,55.10
2018-05-25T08:10:39.837Z,55.60
2018-05-25T08:13:09.245Z,56.60
2018-05-25T08:15:38.312Z,53.40
2018-05-25T08:18:06.617Z,53.30
2018-05-25T08:20:34.965Z,53.30
2018-05-25T08:23:03.270Z,53.20
2018-05-25T08:25:31.601Z,53.20
2018-05-25T08:28:00.713Z,53.40
2018-05-25T08:30:29.793Z,53.90
2018-05-25T08:32:58.143Z,53.90
2018-05-25T08:35:26.496Z,53.50
2018-05-25T08:37:54.809Z,54.50
2018-05-25T08:40:23.148Z,53.00
2018-05-25T08:42:51.471Z,54.10
2018-05-25T08:45:20.547Z,52.70
2018-05-25T08:47:48.969Z,52.60
2018-05-25T08:50:18.045Z,51.40
2018-05-25T08:52:46.350Z,51.30
2018-05-25T08:55:14.877Z,52.30
2018-05-25T08:57:43.184Z,52.60
2018-05-25T09:00:11.534Z,51.80
2018-05-25T09:02:39.996Z,52.40
2018-05-25T09:05:08.297Z,51.60
2018-05-25T09:07:36.718Z,50.80
2018-05-25T09:10:05.888Z,52.60
2018-05-25T09:12:34.237Z,53.20
2018-05-25T09:15:02.574Z,50.20
2018-05-25T09:17:30.912Z,50.60
2018-05-25T09:20:00.101Z,50.50
2018-05-25T09:22:28.838Z,50.60
2018-05-25T09:24:57.181Z,50.40
2018-05-25T09:27:25.485Z,50.10
2018-05-25T09:29:54.566Z,48.30
2018-05-25T09:32:22.958Z,48.30
2018-05-25T09:34:51.310Z,48.70
2018-05-25T09:37:19.611Z,48.70
2018-05-25T09:39:47.964Z,49.00
2018-05-25T09:42:17.073Z,46.90
2018-05-25T09:44:45.393Z,46.90
2018-05-25T09:47:13.736Z,48.00
2018-05-25T09:49:42.934Z,48.00
2018-05-25T09:52:11.313Z,48.50
2018-05-25T09:54:39.661Z,46.20
2018-05-25T09:57:07.965Z,46.50
2018-05-25T09:59:36.275Z,45.40
2018-05-25T10:02:04.623Z,46.50
2018-05-25T10:04:32.933Z,46.80
2018-05-25T10:07:01.237Z,46.00
2018-05-25T10:09:29.670Z,47.70
2018-05-25T10:11:57.977Z,46.30
2018-05-25T10:14:27.057Z,45.20
2018-05-25T10:16:55.401Z,45.20
2018-05-25T10:19:24.542Z,46.30
2018-05-25T10:21:52.849Z,46.30
2018-05-25T10:24:21.169Z,45.20
2018-05-25T10:26:49.514Z,43.20
2018-05-25T10:29:17.929Z,43.50
2018-05-25T10:31:46.249Z,45.30
2018-05-25T10:34:14.925Z,42.30
2018-05-25T10:36:44.001Z,42.90
2018-05-25T10:39:12.305Z,42.90
2018-05-25T10:41:41.008Z,40.50
2018-05-25T10:44:09.322Z,41.50
2018-05-25T10:46:37.756Z,40.20
2018-05-25T10:49:06.300Z,40.40
2018-05-25T10:51:35.359Z,41.00
2018-05-25T10:54:03.637Z,41.00
2018-05-25T10:56:31.953Z,40.80
2018-05-25T10:59:00.245Z,41.50
2018-05-25T11:01:28.706Z,38.40
2018-05-25T11:03:57.026Z,37.40
2018-05-25T11:06:25.317Z,36.60
2018-05-25T11:08:53.705Z,38.70
2018-05-25T11:11:21.988Z,39.10
2018-05-25T11:13:50.268Z,40.60
2018-05-25T11:16:18.591Z,40.30
2018-05-25T11:18:47.641Z,41.30
2018-05-25T11:21:15.969Z,41.20
2018-05-25T11:23:44.360Z,39.70
2018-05-25T11:26:12.649Z,39.00
2018-05-25T11:28:40.974Z,38.90
2018-05-25T11:31:10.019Z,41.30
2018-05-25T11:33:38.335Z,41.40
2018-05-25T11:36:06.628Z,41.10
2018-05-25T11:38:36.425Z,34.90
2018-05-25T11:41:04.740Z,34.80
2018-05-25T11:43:34.964Z,38.20
2018-05-25T11:46:03.256Z,38.00
2018-05-25T11:48:31.544Z,37.60
2018-05-25T11:50:59.936Z,37.80
2018-05-25T11:53:28.260Z,38.60
2018-05-25T11:55:57.342Z,38.30
2018-05-25T11:58:25.629Z,38.30
2018-05-25T12:00:53.952Z,37.00
2018-05-25T12:03:23.004Z,39.80
2018-05-25T12:05:51.307Z,39.80
2018-05-25T12:08:19.806Z,38.10
2018-05-25T12:10:48.097Z,39.60
2018-05-25T12:13:16.480Z,37.10
2018-05-25T12:15:44.882Z,37.50
2018-05-25T12:18:13.269Z,37.10
2018-05-25T12:20:41.549Z,37.00
2018-05-25T12:23:09.874Z,38.00
2018-05-25T12:25:38.926Z,36.50
2018-05-25T12:28:07.304Z,36.40
2018-05-25T12:30:36.318Z,36.50
2018-05-25T12:33:04.649Z,36.40
2018-05-25T12:35:33.350Z,36.20
2018-05-25T12:38:01.630Z,36.00
2018-05-25T12:40:29.950Z,36.10
2018-05-25T12:42:58.304Z,36.70
2018-05-25T12:45:26.593Z,36.00
2018-05-25T12:47:54.917Z,35.70
2018-05-25T12:50:23.965Z,37.40
2018-05-25T12:52:52.289Z,37.30
2018-05-25T12:55:20.614Z,35.50
2018-05-25T12:57:48.906Z,36.40
2018-05-25T13:00:17.191Z,36.10
2018-05-25T13:02:46.364Z,34.90
2018-05-25T13:05:14.754Z,34.90
2018-05-25T13:07:43.041Z,35.50
2018-05-25T13:10:11.328Z,34.10
2018-05-25T13:12:39.649Z,34.90
2018-05-25T13:15:08.730Z,36.30
2018-05-25T13:17:37.050Z,36.20
2018-05-25T13:20:06.097Z,33.90
2018-05-25T13:22:34.513Z,33.90
2018-05-25T13:25:02.809Z,35.50
2018-05-25T13:27:31.129Z,35.70
2018-05-25T13:30:00.181Z,34.30
2018-05-25T13:32:28.501Z,34.20
2018-05-25T13:34:58.516Z,34.40
2018-05-25T13:37:26.813Z,34.40
2018-05-25T13:39:55.101Z,34.70
2018-05-25T13:42:23.425Z,33.30
2018-05-25T13:44:52.478Z,34.30
2018-05-25T13:47:20.787Z,34.30
2018-05-25T13:49:49.180Z,34.80
2018-05-25T13:52:17.504Z,33.90
2018-05-25T13:54:46.607Z,37.50
2018-05-25T13:57:17.616Z,36.80
2018-05-25T13:59:46.329Z,36.70
2018-05-25T14:02:14.609Z,37.70
2018-05-25T14:04:42.891Z,37.30
2018-05-25T14:07:11.209Z,38.40
2018-05-25T14:09:39.893Z,36.80
2018-05-25T14:12:08.177Z,35.60
2018-05-25T14:14:36.466Z,36.10
2018-05-25T14:17:04.966Z,34.60
2018-05-25T14:19:33.362Z,34.60
2018-05-25T14:22:01.645Z,34.90
2018-05-25T14:24:30.032Z,34.10
2018-05-25T14:26:58.312Z,33.40
2018-05-25T14:29:27.020Z,33.80
2018-05-25T14:31:55.423Z,34.50
2018-05-25T14:34:23.719Z,34.30
2018-05-25T14:36:52.042Z,33.60
2018-05-25T14:39:20.389Z,32.80
2018-05-25T14:41:48.777Z,34.20
2018-05-25T14:44:18.605Z,36.30
2018-05-25T14:46:46.981Z,36.20
2018-05-25T14:49:15.297Z,35.60
2018-05-25T14:51:43.668Z,35.40
2018-05-25T14:54:11.988Z,35.70
2018-05-25T14:56:41.074Z,33.60
2018-05-25T14:59:09.394Z,33.50
2018-05-25T15:01:38.478Z,35.90
2018-05-25T15:04:06.806Z,35.90
2018-05-25T15:06:35.099Z,36.20
2018-05-25T15:09:03.405Z,34.10
2018-05-25T15:11:31.834Z,31.80
2018-05-25T15:14:00.619Z,31.50
2018-05-25T15:16:28.938Z,30.00
2018-05-25T15:18:57.312Z,28.00
2018-05-25T15:21:25.598Z,26.80
2018-05-25T15:23:53.989Z,25.90
2018-05-25T15:26:22.282Z,25.50
2018-05-25T15:28:50.673Z,26.90
2018-05-25T15:31:19.065Z,25.80
2018-05-25T15:33:48.259Z,24.80
2018-05-25T15:36:16.578Z,26.40
2018-05-25T15:38:44.864Z,26.40
2018-05-25T15:41:13.245Z,26.60
2018-05-25T15:43:41.533Z,25.90
2018-05-25T15:46:09.926Z,26.30
2018-05-25T15:48:39.901Z,27.60
2018-05-25T15:51:08.186Z,27.60
2018-05-25T15:53:36.530Z,27.50
2018-05-25T15:56:04.844Z,26.70
2018-05-25T15:58:33.937Z,26.40
2018-05-25T16:01:02.226Z,26.40
2018-05-25T16:03:30.537Z,26.00
2018-05-25T16:05:59.626Z,26.60
2018-05-25T16:08:28.508Z,26.50
2018-05-25T16:10:56.921Z,26.30
2018-05-25T16:13:25.296Z,26.20
2018-05-25T16:15:53.911Z,26.70
2018-05-25T16:18:22.197Z,27.60
2018-05-25T16:20:50.487Z,27.60
2018-05-25T16:23:19.575Z,29.10
2018-05-25T16:25:48.285Z,29.10
2018-05-25T16:28:16.676Z,27.70
2018-05-25T16:30:44.956Z,29.10
2018-05-25T16:33:13.357Z,29.50
2018-05-25T16:35:42.057Z,29.00
2018-05-25T16:38:10.349Z,27.90
2018-05-25T16:40:38.654Z,28.50
2018-05-25T16:43:07.124Z,29.20
2018-05-25T16:45:35.418Z,30.40
2018-05-25T16:48:04.529Z,31.30
2018-05-25T16:50:33.040Z,30.90
2018-05-25T16:53:01.322Z,32.60
2018-05-25T16:55:29.696Z,33.60
2018-05-25T16:57:58.012Z,34.50
2018-05-25T17:00:27.099Z,36.20
2018-05-25T17:02:55.391Z,36.20
2018-05-25T17:05:23.709Z,36.70
2018-05-25T17:07:52.793Z,38.40
2018-05-25T17:10:21.074Z,38.40
2018-05-25T17:12:49.678Z,39.30
2018-05-25T17:15:18.064Z,39.20
2018-05-25T17:17:46.350Z,39.30
2018-05-25T17:20:14.669Z,39.90
2018-05-25T17:22:44.158Z,39.80
2018-05-25T17:25:12.454Z,39.80
2018-05-25T17:27:40.842Z,40.00
2018-05-25T17:30:09.230Z,40.20
2018-05-25T17:32:37.521Z,40.00
2018-05-25T17:35:05.909Z,40.10
2018-05-25T17:37:34.219Z,40.90
2018-05-25T17:40:03.284Z,39.90
2018-05-25T17:42:31.602Z,39.90
2018-05-25T17:44:59.892Z,39.80
2018-05-25T17:47:28.209Z,42.60
2018-05-25T17:49:57.252Z,45.00
2018-05-25T17:52:25.537Z,45.00
2018-05-25T17:54:53.965Z,45.30
2018-05-25T17:57:22.267Z,45.70
2018-05-25T17:59:50.649Z,45.60
2018-05-25T18:02:18.964Z,45.50
2018-05-25T18:04:48.022Z,45.70
2018-05-25T18:07:16.419Z,45.50
2018-05-25T18:09:44.701Z,46.40
2018-05-25T18:12:13.101Z,47.50
2018-05-25T18:14:41.418Z,48.00
2018-05-25T18:17:09.700Z,48.60
2018-05-25T18:19:38.025Z,48.80
2018-05-25T18:22:06.314Z,49.40
2018-05-25T18:24:34.665Z,49.80
2018-05-25T18:27:02.996Z,49.80
2018-05-25T18:29:31.345Z,50.50
2018-05-25T18:31:59.624Z,51.00
2018-05-25T18:34:27.909Z,51.10
2018-05-25T18:36:56.305Z,51.50
2018-05-25T18:39:24.629Z,51.50
2018-05-25T18:41:53.713Z,52.00
2018-05-25T18:44:22.102Z,52.00
2018-05-25T18:46:50.497Z,52.40
2018-05-25T18:49:18.881Z,52.40
2018-05-25T18:51:47.222Z,53.10
2018-05-25T18:54:27.547Z,52.70
2018-05-25T18:56:57.340Z,53.50
2018-05-25T18:59:25.626Z,53.40
2018-05-25T19:01:53.950Z,54.00
2018-05-25T19:04:22.270Z,54.50
2018-05-25T19:06:51.351Z,55.30
2018-05-25T19:09:19.673Z,55.30
2018-05-25T19:11:47.998Z,56.00
2018-05-25T19:14:16.709Z,56.30
2018-05-25T19:16:45.013Z,56.20
2018-05-25T19:19:13.737Z,56.50
2018-05-25T19:21:42.791Z,57.90
2018-05-25T19:24:11.072Z,57.90
2018-05-25T19:26:39.605Z,58.70
2018-05-25T19:29:07.885Z,59.70
2018-05-25T19:31:36.170Z,60.00
2018-05-25T19:34:04.574Z,60.40
2018-05-25T19:36:34.361Z,60.80
2018-05-25T19:39:02.653Z,60.80
2018-05-25T19:41:30.961Z,61.60
2018-05-25T19:43:59.285Z,62.30
2018-05-25T19:46:27.657Z,62.10
2018-05-25T19:48:55.949Z,61.40
2018-05-25T19:51:24.224Z,60.50
2018-05-25T19:53:52.625Z,59.70
2018-05-25T19:56:21.209Z,59.90
2018-05-25T19:58:49.490Z,59.70
2018-05-25T20:01:17.764Z,60.00
2018-05-25T20:03:46.484Z,61.80
2018-05-25T20:06:14.771Z,62.50
2018-05-25T20:08:43.277Z,62.90
2018-05-25T20:11:11.565Z,62.50
2018-05-25T20:13:39.853Z,61.50
2018-05-25T20:16:08.220Z,61.70
2018-05-25T20:18:36.474Z,61.90
2018-05-25T20:21:05.555Z,62.80
2018-05-25T20:23:34.609Z,61.90
2018-05-25T20:26:02.896Z,61.90
2018-05-25T20:28:31.256Z,63.10
2018-05-25T20:30:59.750Z,62.90
2018-05-25T20:33:29.038Z,64.20
2018-05-25T20:35:57.433Z,64.10
2018-05-25T20:38:25.722Z,64.80
2018-05-25T20:40:54.057Z,64.70
2018-05-25T20:43:22.375Z,65.90
2018-05-25T20:45:50.664Z,65.10
2018-05-25T20:48:18.972Z,64.60
2018-05-25T20:50:47.265Z,65.50
2018-05-25T20:53:15.586Z,66.10
2018-05-25T20:55:44.640Z,67.60
2018-05-25T20:58:12.957Z,67.60
2018-05-25T21:00:43.185Z,68.30
2018-05-25T21:03:11.477Z,68.20
2018-05-25T21:05:39.789Z,67.80
2018-05-25T21:08:08.873Z,66.60
2018-05-25T21:10:37.194Z,67.10
2018-05-25T21:13:06.252Z,67.40
2018-05-25T21:15:34.573Z,67.30
2018-05-25T21:18:02.861Z,68.20
2018-05-25T21:20:31.158Z,68.70
2018-05-25T21:23:00.353Z,69.90
2018-05-25T21:25:28.638Z,69.80
2018-05-25T21:27:58.053Z,71.10
2018-05-25T21:30:26.342Z,71.10
2018-05-25T21:32:54.634Z,71.90
2018-05-25T21:35:24.876Z,73.10
2018-05-25T21:37:54.693Z,74.80
2018-05-25T21:40:22.983Z,74.80
2018-05-25T21:42:51.681Z,74.60
2018-05-25T21:45:20.172Z,74.10
2018-05-25T21:47:48.458Z,74.00
2018-05-25T21:50:16.782Z,73.40
2018-05-25T21:52:45.857Z,73.70
2018-05-25T21:55:14.250Z,73.70
2018-05-25T21:57:42.569Z,73.60
2018-05-25T22:00:11.660Z,73.90
2018-05-25T22:02:40.034Z,73.80
2018-05-25T22:05:08.305Z,74.40
2018-05-25T22:07:36.629Z,75.00
2018-05-25T22:10:04.914Z,75.70
2018-05-25T22:12:33.541Z,75.50
2018-05-25T22:15:02.604Z,75.80
2018-05-25T22:17:30.893Z,75.70
2018-05-25T22:19:59.393Z,75.90
2018-05-25T22:22:27.780Z,76.40
2018-05-25T22:24:56.090Z,76.50
2018-05-25T22:27:24.417Z,76.60
2018-05-25T22:29:52.697Z,76.80
2018-05-25T22:32:20.993Z,77.10
2018-05-25T22:34:49.304Z,77.00
2018-05-25T22:37:17.594Z,77.10
2018-05-25T22:39:45.915Z,77.90
2018-05-25T22:42:27.706Z,78.60
2018-05-25T22:45:14.738Z,77.70
2018-05-25T22:48:00.913Z,77.60
2018-05-25T22:50:47.154Z,77.80
2018-05-25T22:53:26.572Z,78.50
2018-05-25T22:55:54.888Z,79.50
2018-05-25T22:58:23.171Z,80.20
2018-05-25T23:00:51.521Z,80.50
2018-05-25T23:03:20.606Z,81.10
2018-05-25T23:05:49.695Z,81.20
2018-05-25T23:08:17.981Z,81.10
2018-05-25T23:10:46.269Z,81.20
2018-05-25T23:13:14.678Z,81.20
2018-05-25T23:15:42.961Z,80.30
2018-05-25T23:18:11.251Z,80.00
2018-05-25T23:20:39.556Z,79.40
2018-05-25T23:23:07.878Z,79.90
2018-05-25T23:25:36.527Z,80.70
2018-05-25T23:28:04.925Z,81.40
2018-05-25T23:30:33.310Z,82.10
2018-05-25T23:33:01.630Z,82.50
2018-05-25T23:35:30.687Z,83.30
2018-05-25T23:37:58.993Z,83.40
2018-05-25T23:40:27.381Z,83.30
2018-05-25T23:42:55.671Z,83.00
2018-05-25T23:45:24.060Z,83.10
2018-05-25T23:47:52.345Z,84.10
2018-05-25T23:50:20.765Z,84.10
2018-05-25T23:52:49.232Z,84.10
2018-05-25T23:55:18.456Z,85.40
2018-05-25T23:57:48.252Z,86.50
